createdAt,value
2023-01-01T00:00:43.599Z,100719.13
2023-01-01T00:03:10.581Z,100721.75
2023-01-01T00:05:40.450Z,100723.28
2023-01-01T00:08:07.559Z,100729.63
2023-01-01T00:10:34.407Z,100720.78
2023-01-01T00:13:01.585Z,100726.00
2023-01-01T00:15:29.039Z,100728.78
2023-01-01T00:17:57.596Z,100732.34
2023-01-01T00:20:26.659Z,100738.03
2023-01-01T00:22:57.099Z,100737.09
2023-01-01T00:25:25.188Z,100738.63
2023-01-01T00:27:52.221Z,100741.00
2023-01-01T00:30:19.706Z,100746.09
2023-01-01T00:32:55.391Z,100739.53
2023-01-01T00:35:26.523Z,100743.56
2023-01-01T00:37:54.584Z,100734.50
2023-01-01T00:40:21.616Z,100730.66
2023-01-01T00:42:48.429Z,100716.19
2023-01-01T00:45:20.937Z,100716.06
2023-01-01T00:47:53.070Z,100716.50
2023-01-01T00:50:21.830Z,100719.59
2023-01-01T00:52:49.964Z,100715.72
2023-01-01T00:55:16.970Z,100715.50
2023-01-01T00:57:43.898Z,100725.84
2023-01-01T01:00:11.964Z,100719.75
2023-01-01T01:02:39.003Z,100714.50
2023-01-01T01:05:06.933Z,100704.84
2023-01-01T01:07:36.136Z,100711.38
2023-01-01T01:10:03.116Z,100700.88
2023-01-01T01:12:29.972Z,100705.59
2023-01-01T01:14:56.829Z,100701.78
2023-01-01T01:17:24.209Z,100712.69
2023-01-01T01:19:51.046Z,100701.34
2023-01-01T01:22:21.529Z,100706.75
2023-01-01T01:24:51.642Z,100707.72
2023-01-01T01:27:18.474Z,100713.38
2023-01-01T01:29:45.391Z,100713.28
2023-01-01T01:32:12.942Z,100719.78
2023-01-01T01:34:39.907Z,100730.13
2023-01-01T01:37:06.816Z,100732.69
2023-01-01T01:39:33.706Z,100732.41
2023-01-01T01:42:03.487Z,100735.47
2023-01-01T01:44:54.481Z,100740.13
2023-01-01T01:47:47.470Z,100738.50
2023-01-01T01:50:37.947Z,100728.84
2023-01-01T01:53:22.437Z,100737.66
2023-01-01T01:55:54.252Z,100732.69
2023-01-01T01:58:21.695Z,100725.88
2023-01-01T02:00:49.307Z,100722.41
2023-01-01T02:03:27.780Z,100723.25
2023-01-01T02:05:55.146Z,100725.28
2023-01-01T02:08:22.164Z,100733.84
2023-01-01T02:10:49.099Z,100735.31
2023-01-01T02:13:16.368Z,100738.50
2023-01-01T02:16:00.590Z,100729.63
2023-01-01T02:18:41.990Z,100721.91
2023-01-01T02:21:26.369Z,100729.09
2023-01-01T02:24:17.392Z,100729.09
2023-01-01T02:26:57.337Z,100726.56
2023-01-01T02:29:54.160Z,100722.78
2023-01-01T02:32:44.758Z,100717.16
2023-01-01T02:35:38.759Z,100719.63
2023-01-01T02:38:18.427Z,100736.22
2023-01-01T02:40:54.951Z,100737.44
2023-01-01T02:43:25.025Z,100739.63
2023-01-01T02:45:54.198Z,100741.00
2023-01-01T02:48:53.522Z,100739.59
2023-01-01T02:51:23.060Z,100747.72
2023-01-01T02:54:17.465Z,100744.25
2023-01-01T02:57:41.486Z,100744.66
2023-01-01T03:00:28.243Z,100739.28
2023-01-01T03:03:28.340Z,100742.47
2023-01-01T03:06:35.498Z,100743.31
2023-01-01T03:09:21.361Z,100741.38
2023-01-01T03:12:10.817Z,100750.34
2023-01-01T03:14:40.259Z,100743.53
2023-01-01T03:17:26.789Z,100744.78
2023-01-01T03:19:56.255Z,100740.75
2023-01-01T03:22:30.238Z,100747.91
2023-01-01T03:25:12.546Z,100751.50
2023-01-01T03:28:02.676Z,100751.75
2023-01-01T03:30:31.194Z,100752.28
2023-01-01T03:33:08.266Z,100751.09
2023-01-01T03:35:50.758Z,100747.78
2023-01-01T03:38:35.681Z,100756.88
2023-01-01T03:41:45.309Z,100758.78
2023-01-01T03:44:47.501Z,100760.94
2023-01-01T03:47:14.782Z,100756.06
2023-01-01T03:49:42.576Z,100753.72
2023-01-01T03:52:27.456Z,100765.28
2023-01-01T03:55:24.078Z,100763.63
2023-01-01T03:58:25.174Z,100765.53
2023-01-01T04:01:10.330Z,100756.25
2023-01-01T04:03:39.417Z,100759.00
2023-01-01T04:06:07.291Z,100766.31
2023-01-01T04:08:35.698Z,100766.53
2023-01-01T04:11:29.608Z,100765.69
2023-01-01T04:13:57.100Z,100758.22
2023-01-01T04:16:23.995Z,100747.16
2023-01-01T04:18:51.207Z,100755.16
2023-01-01T04:21:18.021Z,100750.75
2023-01-01T04:23:44.897Z,100764.41
2023-01-01T04:26:15.630Z,100764.19
2023-01-01T04:28:43.067Z,100766.69
2023-01-01T04:31:10.378Z,100759.88
2023-01-01T04:33:37.534Z,100770.59
2023-01-01T04:36:10.065Z,100770.59
2023-01-01T04:38:38.388Z,100773.22
2023-01-01T04:41:05.718Z,100774.34
2023-01-01T04:43:33.000Z,100787.44
2023-01-01T04:46:02.729Z,100784.09
2023-01-01T04:48:31.215Z,100794.69
2023-01-01T04:51:01.431Z,100791.34
2023-01-01T04:53:34.493Z,100788.16
2023-01-01T04:56:09.255Z,100795.31
2023-01-01T04:58:38.385Z,100800.69
2023-01-01T05:01:06.525Z,100802.69
2023-01-01T05:03:33.824Z,100807.81
2023-01-01T05:06:07.233Z,100806.75
2023-01-01T05:08:37.125Z,100809.50
2023-01-01T05:11:29.019Z,100816.50
2023-01-01T05:13:59.465Z,100814.97
2023-01-01T05:16:31.007Z,100818.41
2023-01-01T05:18:58.399Z,100820.19
2023-01-01T05:21:33.848Z,100818.69
2023-01-01T05:24:04.578Z,100816.88
2023-01-01T05:26:36.008Z,100815.34
2023-01-01T05:29:04.029Z,100822.09
2023-01-01T05:31:34.228Z,100828.06
2023-01-01T05:36:38.976Z,100831.28
2023-01-01T05:39:07.925Z,100829.75
2023-01-01T05:41:36.501Z,100814.16
2023-01-01T05:44:06.588Z,100828.78
2023-01-01T05:46:33.656Z,100829.88
2023-01-01T05:49:01.045Z,100843.06
2023-01-01T05:51:29.636Z,100842.34
2023-01-01T05:53:57.352Z,100850.34
2023-01-01T05:56:24.880Z,100860.13
2023-01-01T05:58:51.724Z,100859.97
2023-01-01T06:01:24.443Z,100853.09
2023-01-01T06:03:53.928Z,100854.97
2023-01-01T06:06:25.827Z,100856.03
2023-01-01T06:09:04.588Z,100864.03
2023-01-01T06:11:32.996Z,100867.34
2023-01-01T06:14:01.273Z,100862.13
2023-01-01T06:16:30.346Z,100859.72
2023-01-01T06:18:57.353Z,100870.34
2023-01-01T06:21:26.590Z,100859.50
2023-01-01T06:23:56.838Z,100857.59
2023-01-01T06:26:29.163Z,100872.34
2023-01-01T06:28:57.578Z,100878.53
2023-01-01T06:31:24.807Z,100883.19
2023-01-01T06:33:51.748Z,100884.34
2023-01-01T06:36:22.372Z,100887.34
2023-01-01T06:38:53.197Z,100886.59
2023-01-01T06:41:26.280Z,100880.44
2023-01-01T06:43:55.211Z,100881.38
2023-01-01T06:46:28.792Z,100881.75
2023-01-01T06:49:01.835Z,100890.06
2023-01-01T06:51:36.900Z,100896.38
2023-01-01T06:54:05.548Z,100896.47
2023-01-01T06:56:33.130Z,100910.63
2023-01-01T06:59:00.446Z,100916.84
2023-01-01T07:01:31.240Z,100914.44
2023-01-01T07:03:59.144Z,100918.00
2023-01-01T07:06:27.589Z,100922.41
2023-01-01T07:08:54.556Z,100919.78
2023-01-01T07:11:21.684Z,100922.53
2023-01-01T07:13:48.613Z,100920.50
2023-01-01T07:16:15.620Z,100918.72
2023-01-01T07:18:42.861Z,100919.78
2023-01-01T07:21:32.210Z,100923.97
2023-01-01T07:24:05.601Z,100930.13
2023-01-01T07:26:33.810Z,100935.38
2023-01-01T07:29:08.759Z,100942.03
2023-01-01T07:31:41.315Z,100936.81
2023-01-01T07:34:13.602Z,100944.31
2023-01-01T07:36:41.180Z,100944.81
2023-01-01T07:39:08.234Z,100949.13
2023-01-01T07:41:35.105Z,100955.06
2023-01-01T07:44:02.005Z,100952.06
2023-01-01T07:46:29.323Z,100966.63
2023-01-01T07:48:57.053Z,100974.84
2023-01-01T07:51:23.972Z,100977.00
2023-01-01T07:53:50.959Z,100968.31
2023-01-01T07:56:18.096Z,100978.31
2023-01-01T07:58:45.005Z,100984.88
2023-01-01T08:01:14.435Z,100989.91
2023-01-01T08:03:41.454Z,101000.53
2023-01-01T08:06:11.098Z,100995.75
2023-01-01T08:08:38.567Z,100990.75
2023-01-01T08:11:05.732Z,100985.16
2023-01-01T08:13:32.595Z,100980.03
2023-01-01T08:15:59.697Z,100979.78
2023-01-01T08:18:26.875Z,100984.78
2023-01-01T08:20:54.163Z,100983.28
2023-01-01T08:23:21.057Z,100990.97
2023-01-01T08:25:47.910Z,100988.72
2023-01-01T08:28:14.727Z,100979.72
2023-01-01T08:30:41.698Z,100980.22
2023-01-01T08:33:08.555Z,100992.31
2023-01-01T08:35:40.713Z,100997.06
2023-01-01T08:38:10.567Z,100998.31
2023-01-01T08:40:37.561Z,101002.19
2023-01-01T08:43:04.515Z,101007.50
2023-01-01T08:45:31.356Z,101007.94
2023-01-01T08:47:58.321Z,101013.06
2023-01-01T08:50:25.180Z,101014.25
2023-01-01T08:52:52.020Z,101006.41
2023-01-01T08:55:18.851Z,101002.06
2023-01-01T08:57:45.695Z,101007.53
2023-01-01T09:00:13.609Z,101020.38
2023-01-01T09:02:40.625Z,101016.00
2023-01-01T09:05:08.566Z,101029.63
2023-01-01T09:07:35.537Z,101027.41
2023-01-01T09:10:02.378Z,101030.50
2023-01-01T09:12:29.643Z,101032.03
2023-01-01T09:14:56.505Z,101033.13
2023-01-01T09:17:23.311Z,101034.06
2023-01-01T09:19:50.146Z,101044.59
2023-01-01T09:22:17.015Z,101044.72
2023-01-01T09:24:43.871Z,101044.03
2023-01-01T09:27:10.715Z,101050.94
2023-01-01T09:29:37.514Z,101058.44
2023-01-01T09:32:04.813Z,101055.56
2023-01-01T09:34:31.673Z,101057.06
2023-01-01T09:36:58.541Z,101061.63
2023-01-01T09:39:25.394Z,101065.09
2023-01-01T09:42:33.529Z,101067.34
2023-01-01T09:45:15.357Z,101065.94
2023-01-01T09:47:51.500Z,101063.44
2023-01-01T09:50:23.421Z,101065.25
2023-01-01T09:52:57.714Z,101063.84
2023-01-01T09:55:42.607Z,101069.25
2023-01-01T09:58:11.986Z,101063.88
2023-01-01T10:00:46.866Z,101065.53
2023-01-01T10:03:51.799Z,101067.91
2023-01-01T10:06:28.122Z,101056.97
2023-01-01T10:09:16.553Z,101060.41
2023-01-01T10:12:17.103Z,101044.91
2023-01-01T10:15:00.545Z,101055.16
2023-01-01T10:17:42.063Z,101047.25
2023-01-01T10:20:22.816Z,101058.59
2023-01-01T10:22:56.789Z,101053.63
2023-01-01T10:25:27.867Z,101050.16
2023-01-01T10:28:00.603Z,101040.75
2023-01-01T10:30:29.292Z,101045.31
2023-01-01T10:32:57.606Z,101046.84
2023-01-01T10:35:40.136Z,101043.78
2023-01-01T10:38:07.187Z,101041.00
2023-01-01T10:40:34.428Z,101037.94
2023-01-01T10:43:03.941Z,101032.16
2023-01-01T10:45:36.740Z,101028.84
2023-01-01T10:48:15.473Z,101029.09
2023-01-01T10:50:44.970Z,101035.63
2023-01-01T10:53:33.971Z,101023.81
2023-01-01T10:56:06.542Z,101034.63
2023-01-01T10:58:52.171Z,101033.25
2023-01-01T11:01:19.066Z,101024.34
2023-01-01T11:04:20.944Z,101020.03
2023-01-01T11:06:48.415Z,101022.09
2023-01-01T11:09:38.452Z,101024.44
2023-01-01T11:12:54.566Z,101026.13
2023-01-01T11:15:08.312Z,101024.78
2023-01-01T11:17:36.942Z,101015.78
2023-01-01T11:20:06.658Z,101008.31
2023-01-01T11:22:47.167Z,101014.56
2023-01-01T11:25:28.414Z,101013.28
2023-01-01T11:28:21.340Z,101009.31
2023-01-01T11:31:16.820Z,101010.09
2023-01-01T11:33:55.320Z,100994.44
2023-01-01T11:36:34.478Z,101002.75
2023-01-01T11:39:37.485Z,100993.31
2023-01-01T11:42:06.244Z,100990.69
2023-01-01T11:44:43.836Z,100987.91
2023-01-01T11:47:38.337Z,100981.69
2023-01-01T11:50:14.286Z,100977.25
2023-01-01T11:52:44.800Z,100989.44
2023-01-01T11:55:37.957Z,100981.38
2023-01-01T11:58:40.267Z,100975.31
2023-01-01T12:01:21.500Z,100976.41
2023-01-01T12:04:08.764Z,100963.94
2023-01-01T12:07:24.144Z,100973.50
2023-01-01T12:09:57.623Z,100961.63
2023-01-01T12:12:37.099Z,100960.34
2023-01-01T12:15:35.862Z,100956.47
2023-01-01T12:18:32.204Z,100962.56
2023-01-01T12:21:03.680Z,100951.19
2023-01-01T12:23:32.496Z,100959.09
2023-01-01T12:26:55.527Z,100965.91
2023-01-01T12:29:37.589Z,100960.78
2023-01-01T12:33:08.419Z,100955.78
2023-01-01T12:36:16.210Z,100960.06
2023-01-01T12:38:51.673Z,100954.25
2023-01-01T12:42:01.957Z,100950.34
2023-01-01T12:45:16.073Z,100955.06
2023-01-01T12:48:00.551Z,100951.75
2023-01-01T12:51:12.876Z,100954.53
2023-01-01T12:53:52.376Z,100945.09
2023-01-01T12:57:10.585Z,100941.63
2023-01-01T12:59:42.478Z,100945.09
2023-01-01T13:02:22.690Z,100947.88
2023-01-01T13:04:56.315Z,100950.50
2023-01-01T13:07:45.891Z,100949.78
2023-01-01T13:10:46.782Z,100947.03
2023-01-01T13:13:14.857Z,100947.88
2023-01-01T13:15:43.033Z,100952.44
2023-01-01T13:18:16.122Z,100944.69
2023-01-01T13:21:03.084Z,100944.41
2023-01-01T13:23:34.527Z,100938.16
2023-01-01T13:26:22.702Z,100940.09
2023-01-01T13:28:58.497Z,100944.41
2023-01-01T13:31:40.494Z,100947.59
2023-01-01T13:34:38.011Z,100942.06
2023-01-01T13:37:10.827Z,100948.97
2023-01-01T13:40:04.431Z,100948.00
2023-01-01T13:42:52.905Z,100945.38
2023-01-01T13:46:10.885Z,100948.00
2023-01-01T13:48:57.577Z,100958.97
2023-01-01T13:52:15.985Z,100943.44
2023-01-01T13:55:19.775Z,100939.16
2023-01-01T13:58:15.976Z,100945.94
2023-01-01T14:01:20.703Z,100933.47
2023-01-01T14:03:52.401Z,100940.13
2023-01-01T14:06:39.579Z,100937.06
2023-01-01T14:09:15.511Z,100939.00
2023-01-01T14:11:42.564Z,100938.16
2023-01-01T14:14:28.349Z,100933.47
2023-01-01T14:17:01.820Z,100932.34
2023-01-01T14:19:30.004Z,100939.28
2023-01-01T14:21:57.231Z,100936.38
2023-01-01T14:24:25.375Z,100937.75
2023-01-01T14:26:54.859Z,100936.22
2023-01-01T14:29:31.120Z,100932.06
2023-01-01T14:32:02.199Z,100943.16
2023-01-01T14:34:32.673Z,100942.44
2023-01-01T14:37:06.332Z,100944.41
2023-01-01T14:39:37.326Z,100940.38
2023-01-01T14:42:07.070Z,100938.84
2023-01-01T14:44:45.243Z,100937.31
2023-01-01T14:47:29.575Z,100936.50
2023-01-01T14:50:13.125Z,100935.94
2023-01-01T14:52:40.473Z,100940.94
2023-01-01T14:55:08.444Z,100928.72
2023-01-01T14:57:37.351Z,100927.34
2023-01-01T15:00:28.894Z,100928.47
2023-01-01T15:03:05.523Z,100926.94
2023-01-01T15:05:36.154Z,100917.66
2023-01-01T15:08:07.501Z,100923.88
2023-01-01T15:10:37.498Z,100916.00
2023-01-01T15:13:07.801Z,100916.00
2023-01-01T15:15:34.819Z,100915.31
2023-01-01T15:18:01.765Z,100913.50
2023-01-01T15:20:29.813Z,100910.19
2023-01-01T15:22:56.706Z,100905.19
2023-01-01T15:25:24.627Z,100901.72
2023-01-01T15:27:54.593Z,100896.59
2023-01-01T15:30:31.999Z,100892.19
2023-01-01T15:33:13.982Z,100891.75
2023-01-01T15:35:41.027Z,100887.59
2023-01-01T15:38:21.161Z,100883.44
2023-01-01T15:40:53.344Z,100883.56
2023-01-01T15:43:31.595Z,100884.41
2023-01-01T15:46:20.000Z,100891.59
2023-01-01T15:48:52.330Z,100891.88
2023-01-01T15:51:22.935Z,100895.47
2023-01-01T15:54:00.546Z,100904.31
2023-01-01T15:56:33.436Z,100897.13
2023-01-01T15:59:09.793Z,100898.81
2023-01-01T16:01:40.439Z,100891.88
2023-01-01T16:04:27.997Z,100890.22
2023-01-01T16:07:00.304Z,100892.31
2023-01-01T16:09:27.450Z,100893.25
2023-01-01T16:11:57.454Z,100901.28
2023-01-01T16:14:25.317Z,100884.13
2023-01-01T16:17:00.689Z,100895.59
2023-01-01T16:19:30.964Z,100896.84
2023-01-01T16:21:58.248Z,100887.41
2023-01-01T16:24:25.320Z,100887.56
2023-01-01T16:26:54.957Z,100884.94
2023-01-01T16:29:21.819Z,100884.38
2023-01-01T16:31:51.883Z,100877.44
2023-01-01T16:34:18.719Z,100877.59
2023-01-01T16:36:45.664Z,100868.97
2023-01-01T16:39:12.860Z,100868.28
2023-01-01T16:41:44.145Z,100863.81
2023-01-01T16:44:17.502Z,100864.94
2023-01-01T16:46:44.445Z,100860.66
2023-01-01T16:49:11.333Z,100860.78
2023-01-01T16:51:43.256Z,100858.28
2023-01-01T16:54:10.947Z,100855.94
2023-01-01T16:56:37.856Z,100857.88
2023-01-01T16:59:04.683Z,100849.13
2023-01-01T17:01:31.999Z,100840.56
2023-01-01T17:03:59.734Z,100845.25
2023-01-01T17:06:26.588Z,100839.16
2023-01-01T17:08:53.627Z,100828.91
2023-01-01T17:11:21.132Z,100831.69
2023-01-01T17:13:48.521Z,100813.44
2023-01-01T17:16:21.144Z,100817.00
2023-01-01T17:19:14.470Z,100820.72
2023-01-01T17:21:39.777Z,100818.38
2023-01-01T17:24:07.155Z,100814.78
2023-01-01T17:26:34.004Z,100809.28
2023-01-01T17:29:02.952Z,100814.81
2023-01-01T17:31:30.172Z,100815.09
2023-01-01T17:33:57.602Z,100819.38
2023-01-01T17:36:26.997Z,100818.03
2023-01-01T17:38:53.876Z,100814.00
2023-01-01T17:41:20.748Z,100825.06
2023-01-01T17:43:50.804Z,100817.09
2023-01-01T17:46:24.692Z,100808.94
2023-01-01T17:48:52.270Z,100825.41
2023-01-01T17:51:19.991Z,100828.03
2023-01-01T17:53:47.887Z,100819.44
2023-01-01T17:56:17.288Z,100819.59
2023-01-01T17:58:46.383Z,100794.38
2023-01-01T18:01:15.882Z,100808.38
2023-01-01T18:03:43.096Z,100803.50
2023-01-01T18:06:10.037Z,100796.84
2023-01-01T18:08:36.966Z,100788.41
2023-01-01T18:11:04.231Z,100780.78
2023-01-01T18:13:32.117Z,100797.66
2023-01-01T18:16:08.211Z,100789.38
2023-01-01T18:18:39.316Z,100782.44
2023-01-01T18:21:11.413Z,100773.03
2023-01-01T18:23:39.942Z,100769.69
2023-01-01T18:26:10.089Z,100754.22
2023-01-01T18:28:37.270Z,100744.50
2023-01-01T18:31:14.212Z,100761.41
2023-01-01T18:33:41.695Z,100760.56
2023-01-01T18:36:16.418Z,100762.50
2023-01-01T18:39:01.414Z,100759.19
2023-01-01T18:41:41.036Z,100752.25
2023-01-01T18:44:26.447Z,100763.06
2023-01-01T18:47:04.292Z,100766.34
2023-01-01T18:49:32.712Z,100768.66
2023-01-01T18:52:22.943Z,100766.59
2023-01-01T18:55:08.494Z,100757.00
2023-01-01T18:57:35.837Z,100756.03
2023-01-01T19:00:21.193Z,100753.34
2023-01-01T19:03:02.045Z,100746.84
2023-01-01T19:05:35.224Z,100744.03
2023-01-01T19:08:09.429Z,100736.00
2023-01-01T19:10:53.676Z,100734.69
2023-01-01T19:13:43.094Z,100733.69
2023-01-01T19:16:13.056Z,100736.69
2023-01-01T19:18:45.184Z,100731.97
2023-01-01T19:21:11.960Z,100732.09
2023-01-01T19:24:00.657Z,100730.00
2023-01-01T19:26:33.300Z,100730.53
2023-01-01T19:29:09.783Z,100724.69
2023-01-01T19:31:36.691Z,100723.41
2023-01-01T19:34:03.570Z,100717.72
2023-01-01T19:36:30.778Z,100724.19
2023-01-01T19:38:57.687Z,100718.00
2023-01-01T19:41:31.744Z,100719.63
2023-01-01T19:43:58.827Z,100728.22
2023-01-01T19:46:25.691Z,100714.69
2023-01-01T19:48:55.722Z,100712.28
2023-01-01T19:51:22.956Z,100723.03
2023-01-01T19:53:51.648Z,100722.47
2023-01-01T19:56:18.714Z,100729.50
2023-01-01T19:58:46.310Z,100725.31
2023-01-01T20:01:14.422Z,100717.88
2023-01-01T20:03:57.841Z,100715.72
2023-01-01T20:06:25.486Z,100713.75
2023-01-01T20:08:53.175Z,100717.44
2023-01-01T20:11:20.947Z,100718.53
2023-01-01T20:13:47.885Z,100723.19
2023-01-01T20:16:14.774Z,100725.69
2023-01-01T20:18:41.694Z,100728.56
2023-01-01T20:21:27.238Z,100729.38
2023-01-01T20:23:55.469Z,100721.41
2023-01-01T20:26:23.870Z,100727.50
2023-01-01T20:29:09.364Z,100715.47
2023-01-01T20:31:36.635Z,100713.22
2023-01-01T20:34:03.942Z,100711.53
2023-01-01T20:36:49.413Z,100722.28
2023-01-01T20:39:16.236Z,100711.81
2023-01-01T20:41:43.097Z,100710.00
2023-01-01T20:44:10.083Z,100709.75
2023-01-01T20:46:38.348Z,100711.03
2023-01-01T20:49:05.661Z,100712.59
2023-01-01T20:51:33.094Z,100708.31
2023-01-01T20:54:00.198Z,100715.19
2023-01-01T20:56:27.032Z,100719.63
2023-01-01T20:58:59.519Z,100718.91
2023-01-01T21:01:30.031Z,100710.81
2023-01-01T21:03:57.274Z,100706.53
2023-01-01T21:06:24.966Z,100710.81
2023-01-01T21:08:52.643Z,100712.34
2023-01-01T21:11:19.461Z,100705.31
2023-01-01T21:13:46.552Z,100711.25
2023-01-01T21:16:30.639Z,100717.44
2023-01-01T21:18:59.034Z,100721.03
2023-01-01T21:21:30.346Z,100719.38
2023-01-01T21:24:19.092Z,100720.91
2023-01-01T21:26:46.116Z,100723.41
2023-01-01T21:29:22.565Z,100723.28
2023-01-01T21:32:04.081Z,100732.66
2023-01-01T21:34:44.187Z,100741.94
2023-01-01T21:37:43.966Z,100728.84
2023-01-01T21:40:54.143Z,100732.28
2023-01-01T21:43:39.917Z,100730.03
2023-01-01T21:46:06.719Z,100734.78
2023-01-01T21:48:42.727Z,100723.22
2023-01-01T21:51:37.580Z,100719.50
2023-01-01T21:54:10.522Z,100719.69
2023-01-01T21:56:40.135Z,100720.34
2023-01-01T21:59:27.108Z,100715.56
2023-01-01T22:02:04.274Z,100719.72
2023-01-01T22:04:39.731Z,100724.00
2023-01-01T22:13:16.424Z,100719.63
2023-01-01T22:15:44.455Z,100717.72
2023-01-01T22:18:30.615Z,100720.06
2023-01-01T22:20:58.191Z,100719.00
2023-01-01T22:23:35.645Z,100715.66
2023-01-01T22:26:27.827Z,100719.00
2023-01-01T22:29:00.444Z,100715.66
2023-01-01T22:31:34.269Z,100720.06
2023-01-01T22:34:19.795Z,100718.53
2023-01-01T22:36:46.847Z,100714.38
2023-01-01T22:39:32.952Z,100712.59
2023-01-01T22:41:59.823Z,100717.13
2023-01-01T22:44:27.416Z,100719.63
2023-01-01T22:46:58.612Z,100724.06
2023-01-01T22:49:39.080Z,100720.75
2023-01-01T22:52:07.530Z,100728.00
2023-01-01T22:54:34.477Z,100725.53
2023-01-01T22:57:01.725Z,100707.88
2023-01-01T22:59:28.541Z,100708.69
2023-01-01T23:01:57.660Z,100714.66
2023-01-01T23:04:24.473Z,100718.91
2023-01-01T23:09:19.855Z,100726.69
2023-01-01T23:11:46.769Z,100727.63
2023-01-01T23:14:38.798Z,100729.16
2023-01-01T23:17:06.295Z,100723.91
2023-01-01T23:19:33.241Z,100714.78
2023-01-01T23:22:04.587Z,100715.03
2023-01-01T23:24:32.413Z,100708.94
2023-01-01T23:27:00.547Z,100716.97
2023-01-01T23:29:30.995Z,100720.53
2023-01-01T23:31:58.319Z,100716.41
2023-01-01T23:34:25.472Z,100720.53
2023-01-01T23:36:53.815Z,100720.53
2023-01-01T23:39:20.691Z,100718.88
2023-01-01T23:41:47.627Z,100720.53
2023-01-01T23:44:14.450Z,100729.38
2023-01-01T23:46:41.534Z,100721.63
2023-01-01T23:49:08.613Z,100715.69
2023-01-01T23:51:36.239Z,100713.44
2023-01-01T23:54:03.125Z,100713.69
2023-01-01T23:56:30.035Z,100707.63
2023-01-01T23:58:56.937Z,100698.09
